createdAt,value
2023-04-21T00:01:21.490Z,5.97
2023-04-21T00:03:48.941Z,5.63
2023-04-21T00:06:22.399Z,5.72
2023-04-21T00:08:50.645Z,5.50
2023-04-21T00:11:18.167Z,6.45
2023-04-21T00:13:45.528Z,6.30
2023-04-21T00:16:12.940Z,7.00
2023-04-21T00:18:40.446Z,6.40
2023-04-21T00:21:07.724Z,5.72
2023-04-21T00:23:35.003Z,5.50
2023-04-21T00:26:02.932Z,5.55
2023-04-21T00:28:30.778Z,5.63
2023-04-21T00:30:58.195Z,5.85
2023-04-21T00:33:25.637Z,6.35
2023-04-21T00:35:54.551Z,6.05
2023-04-21T00:38:21.899Z,5.97
2023-04-21T00:40:49.354Z,5.78
2023-04-21T00:43:16.703Z,6.47
2023-04-21T00:45:49.675Z,6.32
2023-04-21T00:48:17.626Z,6.00
2023-04-21T00:50:46.457Z,6.00
2023-04-21T00:53:15.848Z,6.38
2023-04-21T00:55:43.316Z,6.45
2023-04-21T00:58:10.699Z,6.47
2023-04-21T01:00:39.625Z,5.82
2023-04-21T01:03:08.169Z,6.25
2023-04-21T01:05:36.174Z,6.47
2023-04-21T01:08:03.547Z,6.20
2023-04-21T01:10:31.058Z,7.00
2023-04-21T01:12:58.345Z,6.20
2023-04-21T01:15:27.440Z,6.07
2023-04-21T01:17:54.763Z,6.18
2023-04-21T01:20:22.101Z,6.72
2023-04-21T01:22:51.258Z,6.68
2023-04-21T01:25:19.816Z,6.55
2023-04-21T01:27:47.193Z,6.32
2023-04-21T01:30:14.776Z,5.68
2023-04-21T01:32:42.113Z,6.80
2023-04-21T01:35:09.650Z,6.47
2023-04-21T01:37:36.961Z,6.95
2023-04-21T01:40:09.128Z,6.25
2023-04-21T01:42:39.741Z,6.50
2023-04-21T01:45:07.736Z,6.57
2023-04-21T01:47:35.491Z,7.40
2023-04-21T01:50:03.746Z,6.60
2023-04-21T01:52:31.022Z,6.35
2023-04-21T01:54:58.324Z,6.80
2023-04-21T01:57:25.558Z,6.60
2023-04-21T01:59:52.889Z,6.60
2023-04-21T02:02:20.210Z,6.50
2023-04-21T02:04:47.516Z,6.60
2023-04-21T02:07:14.806Z,6.55
2023-04-21T02:09:42.671Z,6.90
2023-04-21T02:12:09.900Z,6.88
2023-04-21T02:14:38.437Z,6.80
2023-04-21T02:17:05.844Z,7.00
2023-04-21T02:19:33.273Z,6.65
2023-04-21T02:22:00.616Z,6.95
2023-04-21T02:24:27.931Z,7.63
2023-04-21T02:26:55.240Z,7.10
2023-04-21T02:29:22.463Z,6.90
2023-04-21T02:31:58.782Z,7.15
2023-04-21T02:34:28.380Z,6.85
2023-04-21T02:36:55.820Z,7.28
2023-04-21T02:39:23.032Z,6.90
2023-04-21T02:41:50.454Z,7.30
2023-04-21T02:44:17.682Z,7.20
2023-04-21T02:46:44.992Z,8.25
2023-04-21T02:49:12.317Z,7.47
2023-04-21T02:51:39.650Z,7.10
2023-04-21T02:54:07.011Z,7.10
2023-04-21T02:56:34.770Z,7.15
2023-04-21T02:59:02.068Z,7.30
2023-04-21T03:01:29.352Z,6.60
2023-04-21T03:03:56.795Z,6.75
2023-04-21T03:06:24.209Z,7.57
2023-04-21T03:08:52.175Z,7.57
2023-04-21T03:11:19.486Z,7.20
2023-04-21T03:13:46.779Z,7.28
2023-04-21T03:16:14.178Z,7.78
2023-04-21T03:18:41.581Z,7.55
2023-04-21T03:21:08.858Z,7.20
2023-04-21T03:23:36.183Z,6.95
2023-04-21T03:26:07.963Z,7.10
2023-04-21T03:28:36.033Z,7.32
2023-04-21T03:31:03.435Z,7.72
2023-04-21T03:33:30.685Z,6.68
2023-04-21T03:35:57.948Z,6.95
2023-04-21T03:38:25.351Z,7.15
2023-04-21T03:40:52.654Z,6.78
2023-04-21T03:43:19.950Z,7.25
2023-04-21T03:45:47.336Z,7.35
2023-04-21T03:48:14.595Z,7.18
2023-04-21T03:50:41.887Z,7.25
2023-04-21T03:53:09.173Z,7.95
2023-04-21T03:55:36.435Z,6.90
2023-04-21T03:58:03.741Z,7.45
2023-04-21T04:00:31.080Z,7.18
2023-04-21T04:02:58.483Z,6.88
2023-04-21T04:05:25.969Z,6.53
2023-04-21T04:07:53.249Z,7.15
2023-04-21T04:10:21.012Z,6.85
2023-04-21T04:12:48.638Z,7.70
2023-04-21T04:15:16.143Z,6.82
2023-04-21T04:17:43.553Z,6.93
2023-04-21T04:20:11.101Z,6.75
2023-04-21T04:22:38.548Z,6.75
2023-04-21T04:25:05.944Z,6.90
2023-04-21T04:27:33.292Z,6.68
2023-04-21T04:30:00.551Z,7.03
2023-04-21T04:32:28.620Z,6.45
2023-04-21T04:34:56.213Z,7.75
2023-04-21T04:37:23.488Z,7.60
2023-04-21T04:39:54.143Z,7.75
2023-04-21T04:42:21.464Z,7.40
2023-04-21T04:44:48.766Z,7.30
2023-04-21T04:47:16.055Z,6.72
2023-04-21T04:49:43.453Z,7.53
2023-04-21T04:52:10.704Z,7.18
2023-04-21T04:54:37.936Z,7.30
2023-04-21T04:57:05.221Z,7.57
2023-04-21T04:59:32.544Z,7.90
2023-04-21T05:01:59.913Z,7.65
2023-04-21T05:04:27.731Z,7.18
2023-04-21T05:06:55.426Z,7.82
2023-04-21T05:09:22.751Z,7.25
2023-04-21T05:11:50.006Z,7.40
2023-04-21T05:14:17.417Z,8.00
2023-04-21T05:16:45.256Z,7.82
2023-04-21T05:19:12.708Z,8.98
2023-04-21T05:21:39.991Z,7.53
2023-04-21T05:24:07.300Z,7.95
2023-04-21T05:26:34.654Z,7.78
2023-04-21T05:29:01.934Z,7.90
2023-04-21T05:31:29.266Z,7.93
2023-04-21T05:33:56.558Z,8.98
2023-04-21T05:36:25.024Z,9.00
2023-04-21T05:38:52.707Z,8.90
2023-04-21T05:41:20.028Z,7.85
2023-04-21T05:43:47.559Z,9.32
2023-04-21T05:46:15.005Z,9.32
2023-04-21T05:48:42.383Z,10.60
2023-04-21T05:51:11.653Z,9.05
2023-04-21T05:53:39.819Z,9.15
2023-04-21T05:56:08.940Z,9.27
2023-04-21T05:58:36.841Z,9.45
2023-04-21T06:01:04.675Z,8.75
2023-04-21T06:03:32.624Z,9.57
2023-04-21T06:06:05.027Z,11.18
2023-04-21T06:08:32.462Z,10.52
2023-04-21T06:10:59.752Z,10.45
2023-04-21T06:13:27.818Z,11.07
2023-04-21T06:15:55.770Z,11.93
2023-04-21T06:18:24.159Z,12.80
2023-04-21T06:20:55.370Z,11.77
2023-04-21T06:23:22.843Z,12.65
2023-04-21T06:26:05.232Z,11.57
2023-04-21T06:28:33.722Z,15.10
2023-04-21T06:31:19.875Z,15.38
2023-04-21T06:34:07.566Z,13.80
2023-04-21T06:36:55.228Z,14.18
2023-04-21T06:39:42.824Z,13.05
2023-04-21T06:42:30.569Z,15.35
2023-04-21T06:45:18.237Z,16.05
2023-04-21T06:48:06.299Z,17.75
2023-04-21T06:50:33.578Z,16.77
2023-04-21T06:53:00.821Z,18.33
2023-04-21T06:55:28.174Z,15.20
2023-04-21T06:57:55.789Z,16.63
2023-04-21T07:00:23.196Z,16.10
2023-04-21T07:02:50.617Z,15.95
2023-04-21T07:05:18.097Z,18.50
2023-04-21T07:07:45.541Z,18.83
2023-04-21T07:10:13.151Z,17.48
2023-04-21T07:12:40.834Z,16.42
2023-04-21T07:15:09.030Z,18.58
2023-04-21T07:17:36.328Z,17.38
2023-04-21T07:20:03.863Z,19.25
2023-04-21T07:22:31.552Z,19.45
2023-04-21T07:24:58.852Z,20.10
2023-04-21T07:27:26.220Z,18.58
2023-04-21T07:29:53.514Z,19.08
2023-04-21T07:32:21.028Z,17.80
2023-04-21T07:34:48.414Z,17.60
2023-04-21T07:37:16.435Z,18.45
2023-04-21T07:39:43.872Z,20.63
2023-04-21T07:42:11.864Z,18.42
2023-04-21T07:44:39.248Z,18.40
2023-04-21T07:47:06.577Z,23.77
2023-04-21T07:49:33.989Z,25.30
2023-04-21T07:52:01.432Z,20.73
2023-04-21T07:54:30.311Z,20.23
2023-04-21T07:56:59.010Z,19.77
2023-04-21T07:59:26.325Z,20.67
2023-04-21T08:01:53.617Z,23.13
2023-04-21T08:04:21.188Z,21.08
2023-04-21T08:06:48.906Z,20.67
2023-04-21T08:09:16.394Z,22.40
2023-04-21T08:11:43.998Z,20.60
2023-04-21T08:14:11.973Z,20.98
2023-04-21T08:16:40.639Z,22.52
2023-04-21T08:19:08.716Z,22.27
2023-04-21T08:21:36.625Z,20.65
2023-04-21T08:24:04.107Z,20.50
2023-04-21T08:26:33.731Z,19.77
2023-04-21T08:29:04.011Z,21.58
2023-04-21T08:31:31.953Z,23.20
2023-04-21T08:34:17.263Z,20.25
2023-04-21T08:36:44.927Z,19.85
2023-04-21T08:39:13.258Z,19.42
2023-04-21T08:41:41.896Z,28.90
2023-04-21T08:44:12.147Z,21.52
2023-04-21T08:46:40.605Z,42.65
2023-04-21T08:49:10.532Z,58.58
2023-04-21T08:51:37.857Z,33.53
2023-04-21T08:54:05.825Z,37.08
2023-04-21T08:56:33.294Z,35.42
2023-04-21T08:59:00.683Z,31.40
2023-04-21T09:01:28.050Z,30.65
2023-04-21T09:04:15.354Z,33.58
2023-04-21T09:06:46.403Z,27.20
2023-04-21T09:09:13.838Z,28.10
2023-04-21T09:11:41.125Z,31.20
2023-04-21T09:14:09.755Z,26.10
2023-04-21T09:16:37.395Z,22.70
2023-04-21T09:19:13.475Z,25.10
2023-04-21T09:21:44.652Z,26.55
2023-04-21T09:24:13.114Z,25.08
2023-04-21T09:26:43.277Z,89.05
2023-04-21T09:29:10.761Z,36.25
2023-04-21T09:31:38.214Z,33.50
2023-04-21T09:34:21.743Z,38.05
2023-04-21T09:36:49.116Z,38.30
2023-04-21T09:41:46.827Z,30.70
2023-04-21T09:44:14.198Z,35.67
2023-04-21T09:46:44.950Z,28.65
2023-04-21T09:49:13.909Z,29.17
2023-04-21T09:54:29.691Z,31.05
2023-04-21T09:57:04.486Z,28.27
2023-04-21T09:59:47.429Z,22.15
2023-04-21T10:02:17.219Z,23.70
2023-04-21T10:04:46.179Z,24.05
2023-04-21T10:07:13.761Z,27.45
2023-04-21T10:09:55.773Z,23.52
2023-04-21T10:12:24.466Z,23.15
2023-04-21T10:14:55.722Z,24.58
2023-04-21T10:17:25.027Z,31.45
2023-04-21T10:19:58.420Z,23.73
2023-04-21T10:22:33.388Z,25.48
2023-04-21T10:25:03.692Z,26.17
2023-04-21T10:27:41.819Z,26.83
2023-04-21T10:30:23.710Z,27.65
2023-04-21T10:33:06.522Z,31.15
2023-04-21T10:36:01.043Z,25.63
2023-04-21T10:38:42.724Z,24.40
2023-04-21T10:41:29.359Z,25.52
2023-04-21T10:44:12.173Z,27.10
2023-04-21T10:46:47.747Z,28.52
2023-04-21T10:49:26.387Z,24.23
2023-04-21T10:51:59.695Z,23.98
2023-04-21T10:54:31.249Z,20.90
2023-04-21T10:56:59.697Z,28.88
2023-04-21T10:59:30.143Z,24.42
2023-04-21T11:01:57.888Z,21.42
2023-04-21T11:04:26.061Z,21.13
2023-04-21T11:07:14.833Z,22.13
2023-04-21T11:09:43.372Z,23.67
2023-04-21T11:12:12.735Z,21.40
2023-04-21T11:14:41.542Z,20.15
2023-04-21T11:17:13.892Z,21.58
2023-04-21T11:19:41.994Z,21.13
2023-04-21T11:22:09.308Z,20.65
2023-04-21T11:24:36.968Z,31.08
2023-04-21T11:27:08.353Z,19.67
2023-04-21T11:29:35.624Z,21.27
2023-04-21T11:32:05.963Z,21.83
2023-04-21T11:34:33.463Z,20.15
2023-04-21T11:37:00.897Z,22.25
2023-04-21T11:39:28.190Z,21.52
2023-04-21T11:41:55.823Z,24.73
2023-04-21T11:44:35.711Z,19.33
2023-04-21T11:47:25.899Z,20.30
2023-04-21T11:49:56.391Z,20.08
2023-04-21T11:52:34.411Z,19.67
2023-04-21T11:55:06.851Z,18.27
2023-04-21T11:57:35.117Z,21.13
2023-04-21T12:00:04.652Z,17.40
2023-04-21T12:02:33.107Z,18.83
2023-04-21T12:05:06.269Z,19.92
2023-04-21T12:07:45.085Z,17.35
2023-04-21T12:10:14.813Z,21.13
2023-04-21T12:12:43.702Z,17.77
2023-04-21T12:15:12.878Z,24.52
